Time;durP1;ratioP1;P1;durP2;ratioP2;P2;SDS_P1;SDS_P2;PMS_P1;PMS_P2;Temp;Humidity;BMP_temperature;BMP_pressure;BME280_temperature;BME280_humidity;BME280_pressure;Samples;Min_cycle;Max_cycle;Signal;HPM_P1;HPM_P2
2021/07/10 00:02:37;;;;;;;201.77;192.80;;;;;;;;;;4798575;28;20523;-79
2021/07/10 00:05:18;;;;;;;234.07;223.63;;;;;;;;;;4800353;28;20180;-79
2021/07/10 00:08:01;;;;;;;246.73;235.23;;;15.60;51.00;;;;;;4803647;28;20211;-82
2021/07/10 00:10:42;;;;;;;220.27;210.30;;;15.50;50.80;;;;;;4803762;28;20209;-82
2021/07/10 00:13:24;;;;;;;224.10;214.00;;;15.70;49.70;;;;;;4802836;28;20184;-79
2021/07/10 00:16:06;;;;;;;232.33;221.73;;;15.80;51.60;;;;;;4803500;28;20650;-82
2021/07/10 00:18:47;;;;;;;204.07;194.87;;;;;;;;;;4803653;28;20535;-80
2021/07/10 00:21:28;;;;;;;226.43;216.23;;;15.70;49.30;;;;;;4802460;28;20611;-82
2021/07/10 00:24:11;;;;;;;246.47;235.00;;;15.70;47.40;;;;;;4802253;28;20526;-81
2021/07/10 00:26:52;;;;;;;229.97;219.33;;;14.60;46.60;;;;;;4803619;28;20531;-81
2021/07/10 00:29:33;;;;;;;212.70;203.00;;;15.40;48.60;;;;;;4803491;28;20172;-80
2021/07/10 00:32:14;;;;;;;199.57;190.40;;;15.10;47.90;;;;;;4803203;28;20188;-80
2021/07/10 00:34:55;;;;;;;221.17;211.03;;;15.60;47.50;;;;;;4803607;28;20180;-82
2021/07/10 00:37:36;;;;;;;210.07;200.57;;;;;;;;;;4803332;28;20184;-82
2021/07/10 00:40:19;;;;;;;176.60;168.60;;;15.20;49.60;;;;;;4802116;28;20212;-83
2021/07/10 00:43:00;;;;;;;157.93;150.70;;;15.30;51.20;;;;;;4802170;28;20182;-79
2021/07/10 00:45:42;;;;;;;199.17;190.17;;;15.00;51.00;;;;;;4801815;28;20686;-83
2021/07/10 00:48:23;;;;;;;221.07;210.90;;;;;;;;;;4788750;28;20176;-83
2021/07/10 00:51:04;;;;;;;201.93;192.53;;;15.00;49.20;;;;;;4801900;28;20184;-81
2021/07/10 00:53:45;;;;;;;211.57;201.87;;;15.30;49.80;;;;;;4801986;28;20597;-83
2021/07/10 00:56:27;;;;;;;203.50;194.30;;;15.20;51.30;;;;;;4815740;28;20180;-81
2021/07/10 00:59:09;;;;;;;203.17;193.87;;;15.10;48.70;;;;;;4801697;28;20215;-81
2021/07/10 01:01:51;;;;;;;198.43;189.43;;;;;;;;;;4800770;28;20223;-81
2021/07/10 01:04:32;;;;;;;168.97;161.27;;;15.60;50.60;;;;;;4802893;28;20654;-82
2021/07/10 01:07:13;;;;;;;164.57;157.00;;;;;;;;;;4802664;28;20184;-82
2021/07/10 01:09:55;;;;;;;179.77;171.47;;;;;;;;;;4801751;28;20193;-82
2021/07/10 01:12:39;;;;;;;172.80;164.87;;;15.30;51.90;;;;;;4801565;28;20654;-82
2021/07/10 01:15:22;;;;;;;190.83;181.97;;;15.20;48.30;;;;;;4802687;28;20184;-81
2021/07/10 01:18:03;;;;;;;216.83;206.63;;;;;;;;;;4814160;28;20186;-80
2021/07/10 01:20:47;;;;;;;210.43;200.40;;;15.10;48.20;;;;;;4803761;28;20223;-81
2021/07/10 01:23:29;;;;;;;197.30;188.00;;;;;;;;;;4802522;28;20184;-81
2021/07/10 01:26:10;;;;;;;211.13;201.13;;;14.90;48.00;;;;;;4802331;28;20176;-82
2021/07/10 01:28:51;;;;;;;203.97;194.47;;;14.60;47.90;;;;;;4801361;28;20172;-81
2021/07/10 01:31:33;;;;;;;203.57;194.07;;;15.40;49.10;;;;;;4802366;28;20172;-82
2021/07/10 01:34:14;;;;;;;194.23;185.13;;;15.30;49.20;;;;;;4802080;28;20180;-81
2021/07/10 01:36:57;;;;;;;171.20;163.33;;;15.20;50.70;;;;;;4801301;28;20519;-80
2021/07/10 01:39:38;;;;;;;199.80;190.57;;;15.20;50.90;;;;;;4802345;28;20277;-81
2021/07/10 01:42:20;;;;;;;202.33;192.93;;;;;;;;;;4800581;28;20208;-81
2021/07/10 01:45:02;;;;;;;191.57;182.67;;;15.20;50.20;;;;;;4804149;28;20232;-81
2021/07/10 01:47:43;;;;;;;204.53;194.90;;;14.30;48.90;;;;;;4801193;28;20172;-81
2021/07/10 01:50:24;;;;;;;209.80;199.93;;;15.20;47.10;;;;;;4802063;28;20192;-80
2021/07/10 01:53:07;;;;;;;182.83;174.20;;;15.20;48.80;;;;;;4800937;28;20184;-79
2021/07/10 01:55:48;;;;;;;201.23;191.83;;;15.00;49.20;;;;;;4801015;28;20176;-79
2021/07/10 01:58:29;;;;;;;212.07;202.27;;;15.20;49.20;;;;;;4787580;28;20192;-81
2021/07/10 02:01:10;;;;;;;198.17;188.83;;;;;;;;;;4798688;28;20215;-81
2021/07/10 02:03:51;;;;;;;155.50;148.40;;;15.10;50.30;;;;;;4801878;28;20263;-81
2021/07/10 02:06:33;;;;;;;165.43;157.87;;;15.10;51.30;;;;;;4787419;28;20259;-80
2021/07/10 02:09:15;;;;;;;197.80;188.57;;;15.10;50.20;;;;;;4801652;28;20498;-82
2021/07/10 02:11:57;;;;;;;160.27;152.93;;;14.40;50.00;;;;;;4800687;28;20192;-80
2021/07/10 02:14:38;;;;;;;197.67;188.40;;;15.30;48.80;;;;;;4800740;28;20184;-81
2021/07/10 02:17:19;;;;;;;190.13;181.33;;;;;;;;;;4800404;28;20920;-80
2021/07/10 02:20:00;;;;;;;174.47;166.37;;;15.00;49.70;;;;;;4801384;28;20211;-81
2021/07/10 02:22:42;;;;;;;177.57;169.23;;;;;;;;;;4801284;28;20212;-79
2021/07/10 02:25:25;;;;;;;198.67;189.37;;;15.10;48.70;;;;;;4801479;28;20673;-80
2021/07/10 02:28:06;;;;;;;199.53;190.23;;;15.20;48.00;;;;;;4799944;28;20259;-81
2021/07/10 02:30:48;;;;;;;186.40;177.80;;;14.90;48.30;;;;;;4800260;28;20215;-81
2021/07/10 02:33:29;;;;;;;149.73;142.73;;;15.00;49.40;;;;;;4801275;28;20207;-80
2021/07/10 02:36:10;;;;;;;170.23;162.13;;;15.10;48.30;;;;;;4801035;28;20172;-81
2021/07/10 02:38:51;;;;;;;180.27;171.83;;;14.70;47.70;;;;;;4801149;28;20172;-80
2021/07/10 02:41:33;;;;;;;187.03;178.20;;;15.20;46.70;;;;;;4786503;28;20201;-81
2021/07/10 02:44:16;;;;;;;178.13;169.80;;;14.90;47.30;;;;;;4799663;28;20224;-81
2021/07/10 02:46:57;;;;;;;178.47;170.17;;;14.90;46.30;;;;;;4800149;28;20176;-81
2021/07/10 02:49:38;;;;;;;187.27;178.50;;;14.80;46.10;;;;;;4786529;28;20267;-81
2021/07/10 02:52:20;;;;;;;180.23;171.80;;;;;;;;;;4799768;28;20501;-80
2021/07/10 02:55:00;;;;;;;174.37;166.07;;;14.50;45.20;;;;;;4799835;28;20185;-81
2021/07/10 02:57:43;;;;;;;170.23;162.23;;;14.80;45.20;;;;;;4800026;28;20180;-81
2021/07/10 03:00:27;;;;;;;181.93;173.20;;;14.90;46.50;;;;;;4799757;28;20220;-81
2021/07/10 03:03:08;;;;;;;169.90;161.80;;;;;;;;;;4800304;28;20207;-81
2021/07/10 03:05:49;;;;;;;164.43;156.63;;;14.90;45.70;;;;;;4799888;28;20192;-81
2021/07/10 03:08:30;;;;;;;166.03;158.23;;;;;;;;;;4800810;28;20259;-82
2021/07/10 03:11:12;;;;;;;160.93;153.33;;;;;;;;;;4799511;28;20255;-82
2021/07/10 03:13:55;;;;;;;159.53;152.03;;;14.50;45.20;;;;;;4813412;28;20638;-82
2021/07/10 03:16:36;;;;;;;158.93;151.53;;;;;;;;;;4800732;28;20203;-82
2021/07/10 03:19:17;;;;;;;158.27;150.77;;;;;;;;;;4799496;28;20176;-81
2021/07/10 03:21:59;;;;;;;137.63;131.23;;;;;;;;;;4799455;28;20285;-81
2021/07/10 03:24:40;;;;;;;168.13;160.20;;;;;;;;;;4799857;28;20580;-81
2021/07/10 03:27:21;;;;;;;162.57;154.90;;;;;;;;;;4800629;28;20187;-80
2021/07/10 03:30:05;;;;;;;163.50;155.73;;;;;;;;;;4799335;28;20180;-81
2021/07/10 03:32:46;;;;;;;173.07;164.87;;;;;;;;;;4800512;28;20180;-82
2021/07/10 03:35:28;;;;;;;174.33;166.03;;;;;;;;;;4800681;28;20184;-81
2021/07/10 03:38:09;;;;;;;175.13;166.73;;;;;;;;;;4811104;28;20193;-81
2021/07/10 03:40:50;;;;;;;174.20;165.90;;;;;;;;;;4821378;28;20183;-81
2021/07/10 03:43:31;;;;;;;146.73;139.90;;;;;;;;;;4822087;28;20199;-81
2021/07/10 03:46:13;;;;;;;162.47;154.77;;;;;;;;;;4821746;28;20179;-82
2021/07/10 03:48:54;;;;;;;163.67;155.97;;;;;;;;;;4821910;28;20186;-81
2021/07/10 03:51:36;;;;;;;164.57;156.87;;;;;;;;;;4821838;28;20172;-80
2021/07/10 03:54:17;;;;;;;172.90;164.60;;;;;;;;;;4822735;28;20522;-81
2021/07/10 03:56:58;;;;;;;168.37;160.40;;;15.80;47.20;;;;;;4821812;28;20223;-81
2021/07/10 03:59:40;;;;;;;189.27;180.37;;;;;;;;;;4822767;28;20219;-82
2021/07/10 04:02:22;;;;;;;170.40;162.40;;;15.90;49.10;;;;;;4820714;28;20559;-81
2021/07/10 04:05:04;;;;;;;179.37;170.80;;;16.30;48.10;;;;;;4822552;28;20515;-81
2021/07/10 04:07:45;;;;;;;175.87;167.57;;;;;;;;;;4821766;28;20179;-81
2021/07/10 04:10:26;;;;;;;171.63;163.53;;;;;;;;;;4821576;28;20179;-82
2021/07/10 04:13:11;;;;;;;148.93;141.97;;;;;;;;;;4821428;28;20180;-80
2021/07/10 04:15:52;;;;;;;157.30;149.90;;;;;;;;;;4822496;28;20507;-81
2021/07/10 04:18:36;;;;;;;139.77;133.27;;;;;;;;;;4822590;28;20211;-80
2021/07/10 04:21:18;;;;;;;166.53;158.63;;;;;;;;;;4821263;28;20522;-82
2021/07/10 04:23:59;;;;;;;140.63;134.03;;;;;;;;;;4821489;28;20190;-83
2021/07/10 04:26:40;;;;;;;162.73;155.10;;;;;;;;;;4821482;28;20180;-82
2021/07/10 04:29:22;;;;;;;147.10;140.30;;;;;;;;;;4821168;28;20263;-82
2021/07/10 04:32:03;;;;;;;143.53;136.83;;;16.40;59.20;;;;;;4822191;28;20539;-81
2021/07/10 04:34:46;;;;;;;125.07;119.30;;;;;;;;;;4821310;28;20179;-81
2021/07/10 04:37:28;;;;;;;151.60;144.60;;;;;;;;;;4822126;28;20180;-81
2021/07/10 04:40:09;;;;;;;124.20;118.40;;;;;;;;;;4821972;28;20180;-82
2021/07/10 04:42:50;;;;;;;117.53;112.10;;;;;;;;;;4821962;28;20211;-82
2021/07/10 04:45:32;;;;;;;150.67;143.80;;;;;;;;;;4821694;28;20223;-84
2021/07/10 04:48:13;;;;;;;122.37;116.67;;;;;;;;;;4821875;28;20179;-83
2021/07/10 04:50:56;;;;;;;93.57;89.17;;;;;;;;;;4820930;28;20178;-81
2021/07/10 04:53:37;;;;;;;127.00;121.20;;;;;;;;;;4820867;28;20190;-79
2021/07/10 04:56:18;;;;;;;140.20;133.90;;;;;;;;;;4820737;28;20701;-82
2021/07/10 04:59:00;;;;;;;147.30;140.70;;;;;;;;;;4821751;28;20184;-82
2021/07/10 05:01:41;;;;;;;93.60;89.23;;;;;;;;;;4818884;28;20199;-80
2021/07/10 05:04:22;;;;;;;55.10;52.37;;;;;;;;;;4820823;28;20215;-82
2021/07/10 05:07:06;;;;;;;28.03;26.60;;;;;;;;;;4821418;28;20258;-82
2021/07/10 05:09:47;;;;;;;24.30;23.10;;;;;;;;;;4820626;28;20258;-82
2021/07/10 05:12:27;;;;;;;15.00;14.20;;;17.20;62.70;;;;;;4820628;28;20179;-81
2021/07/10 05:15:09;;;;;;;25.67;24.33;;;17.20;58.90;;;;;;4821491;28;20262;-81
2021/07/10 05:17:51;;;;;;;33.53;31.90;;;;;;;;;;4820548;28;20179;-85
2021/07/10 05:20:32;;;;;;;27.57;26.20;;;;;;;;;;4820480;28;20266;-82
2021/07/10 05:23:14;;;;;;;22.10;20.97;;;17.20;63.20;;;;;;4821051;28;20207;-81
2021/07/10 05:25:55;;;;;;;29.73;28.27;;;;;;;;;;4820340;28;20650;-82
2021/07/10 05:28:36;;;;;;;42.90;40.80;;;17.00;58.20;;;;;;4821408;28;20186;-83
2021/07/10 05:31:17;;;;;;;42.77;40.60;;;16.50;58.20;;;;;;4811896;28;20200;-84
2021/07/10 05:33:59;;;;;;;44.80;42.60;;;;;;;;;;4801473;28;20176;-84
2021/07/10 05:36:40;;;;;;;38.87;36.93;;;;;;;;;;4801497;28;20227;-81
2021/07/10 05:39:22;;;;;;;55.17;52.40;;;17.50;61.20;;;;;;4801115;28;20267;-81
2021/07/10 05:42:05;;;;;;;55.97;53.20;;;17.20;61.10;;;;;;4787461;28;20176;-83
2021/07/10 05:44:46;;;;;;;52.40;49.80;;;17.80;59.60;;;;;;4794376;28;20226;-82
2021/07/10 05:47:27;;;;;;;53.60;50.90;;;;;;;;;;4820349;28;20207;-83
2021/07/10 05:50:09;;;;;;;79.37;75.50;;;17.90;63.10;;;;;;4819870;28;20305;-78
2021/07/10 05:52:49;;;;;;;93.97;89.50;;;18.50;60.00;;;;;;4820828;28;20191;-83
2021/07/10 05:55:32;;;;;;;107.37;102.33;;;18.10;62.20;;;;;;4820965;28;20270;-83
2021/07/10 05:58:15;;;;;;;60.73;57.73;;;;;;;;;;4820571;28;20263;-82
2021/07/10 06:00:56;;;;;;;52.17;49.60;;;17.90;45.50;;;;;;4818675;28;20673;-81
2021/07/10 06:03:38;;;;;;;73.00;69.40;;;18.20;45.40;;;;;;4818990;28;20215;-82
2021/07/10 06:06:19;;;;;;;62.10;59.00;;;18.10;46.60;;;;;;4819428;28;20215;-80
2021/07/10 06:09:00;;;;;;;59.43;56.53;;;;;;;;;;4820621;28;20269;-81
2021/07/10 06:11:43;;;;;;;87.67;83.47;;;17.50;45.50;;;;;;4820504;28;20183;-82
2021/07/10 06:14:23;;;;;;;87.37;83.23;;;17.20;43.30;;;;;;4820524;28;20179;-82
2021/07/10 06:17:05;;;;;;;105.47;100.40;;;17.20;42.30;;;;;;4819289;28;20233;-82
2021/07/10 06:19:46;;;;;;;92.50;88.03;;;;;;;;;;4820301;28;20274;-83
2021/07/10 06:22:27;;;;;;;118.33;112.70;;;;;;;;;;4805529;28;20512;-82
2021/07/10 06:25:11;;;;;;;128.00;121.67;;;18.10;45.90;;;;;;4819168;28;20669;-83
2021/07/10 06:27:54;;;;;;;152.73;145.47;;;18.70;47.10;;;;;;4820185;28;20191;-83
2021/07/10 06:30:35;;;;;;;152.20;144.87;;;;;;;;;;4819120;28;20175;-79
2021/07/10 06:33:16;;;;;;;123.40;117.13;;;;;;;;;;4819953;28;20207;-82
2021/07/10 06:35:58;;;;;;;148.80;141.60;;;;;;;;;;4805489;28;20187;-82
2021/07/10 06:38:39;;;;;;;60.27;56.90;;;;;;;;;;4819077;28;20179;-82
2021/07/10 06:41:20;;;;;;;101.30;96.50;;;;;;;;;;4805053;28;20179;-81
2021/07/10 06:44:03;;;;;;;111.27;105.97;;;19.10;46.80;;;;;;4805152;28;20239;-81
2021/07/10 06:46:45;;;;;;;99.73;95.00;;;;;;;;;;4818992;28;20176;-83
2021/07/10 06:49:26;;;;;;;119.97;114.17;;;;;;;;;;4818839;28;20188;-82
2021/07/10 06:52:08;;;;;;;57.83;54.93;;;19.30;47.50;;;;;;4819687;28;20227;-82
2021/07/10 06:54:49;;;;;;;57.07;54.27;;;18.80;48.50;;;;;;4819776;28;20203;-83
2021/07/10 06:57:30;;;;;;;53.20;50.60;;;19.00;48.60;;;;;;4819700;28;20179;-81
2021/07/10 07:00:16;;;;;;;59.73;56.77;;;18.90;46.50;;;;;;4818392;28;20207;-83
2021/07/10 07:02:57;;;;;;;47.87;45.57;;;18.90;47.40;;;;;;4819769;28;20207;-83
2021/07/10 07:05:38;;;;;;;30.37;28.87;;;;;;;;;;4818799;28;20184;-83
2021/07/10 07:08:20;;;;;;;44.80;42.60;;;;;;;;;;4804951;28;20183;-81
2021/07/10 07:11:00;;;;;;;26.10;24.83;;;19.70;47.80;;;;;;4819891;28;20262;-79
2021/07/10 07:13:42;;;;;;;27.33;26.03;;;20.40;49.00;;;;;;4832452;28;20266;-79
2021/07/10 07:16:24;;;;;;;37.17;35.37;;;18.70;46.40;;;;;;4818015;28;20179;-82
2021/07/10 07:19:06;;;;;;;32.33;30.80;;;19.10;46.20;;;;;;4818282;28;20263;-82
2021/07/10 07:21:47;;;;;;;39.47;37.57;;;;;;;;;;4818441;28;20214;-82
2021/07/10 07:24:28;;;;;;;25.80;24.57;;;19.90;47.60;;;;;;4819524;28;20238;-84
2021/07/10 07:27:09;;;;;;;29.87;28.37;;;19.80;47.20;;;;;;4818514;28;20175;-83
2021/07/10 07:29:50;;;;;;;28.97;27.57;;;20.00;46.60;;;;;;4819372;28;20191;-84
2021/07/10 07:32:33;;;;;;;14.80;14.10;;;20.10;49.80;;;;;;4804820;28;20180;-86
2021/07/10 07:35:15;;;;;;;18.83;17.93;;;20.00;48.30;;;;;;4830598;28;20196;-87
2021/07/10 07:37:57;;;;;;;15.73;14.97;;;;;;;;;;4818466;28;20286;-84
2021/07/10 07:40:37;;;;;;;9.37;8.97;;;20.80;50.10;;;;;;4799669;28;20176;-83
2021/07/10 07:43:19;;;;;;;3.80;3.60;;;21.30;50.20;;;;;;4800384;28;20212;-82
2021/07/10 07:46:00;;;;;;;2.87;2.77;;;;;;;;;;4763484;29;20189;-83
2021/07/10 07:48:43;;;;;;;2.40;2.30;;;22.30;50.70;;;;;;4763910;29;20175;-85
2021/07/10 07:51:24;;;;;;;2.30;2.23;;;22.60;51.40;;;;;;4763756;29;20178;-84
2021/07/10 07:54:06;;;;;;;3.93;3.77;;;;;;;;;;4762630;29;20190;-83
2021/07/10 07:56:47;;;;;;;1.70;1.60;;;22.10;51.20;;;;;;4762428;29;20628;-84
2021/07/10 07:59:28;;;;;;;0.90;0.90;;;21.60;51.60;;;;;;4762502;29;20245;-83
2021/07/10 08:02:09;;;;;;;2.07;1.97;;;21.30;51.90;;;;;;4760569;29;20189;-83
2021/07/10 08:04:52;;;;;;;1.00;1.00;;;21.20;52.10;;;;;;4763521;29;20213;-82
2021/07/10 08:07:34;;;;;;;4.33;4.13;;;20.70;50.80;;;;;;4763501;29;20260;-88
2021/07/10 08:10:16;;;;;;;1.57;1.47;;;20.40;52.70;;;;;;4762334;29;20512;-83
2021/07/10 08:12:59;;;;;;;1.87;1.77;;;20.70;51.50;;;;;;4762134;29;20519;-82
2021/07/10 08:15:39;;;;;;;1.80;1.70;;;20.60;51.80;;;;;;4761891;29;20648;-84
2021/07/10 08:18:21;;;;;;;3.07;2.97;;;;;;;;;;4762571;29;20197;-84
2021/07/10 08:21:03;;;;;;;1.57;1.47;;;20.40;52.20;;;;;;4762201;29;20663;-82
2021/07/10 08:23:45;;;;;;;1.30;1.30;;;;;;;;;;4762490;29;20213;-83
2021/07/10 08:26:26;;;;;;;1.30;1.30;;;21.00;52.00;;;;;;4762351;29;20527;-83
2021/07/10 08:29:07;;;;;;;2.43;2.33;;;20.80;51.50;;;;;;4766171;29;20181;-86
2021/07/10 08:31:48;;;;;;;2.60;2.50;;;;;;;;;;4764397;29;20217;-82
2021/07/10 08:34:30;;;;;;;1.33;1.23;;;;;;;;;;4765803;29;20182;-81
2021/07/10 08:37:12;;;;;;;3.03;2.83;;;21.70;52.70;;;;;;4764475;29;20209;-82
2021/07/10 08:39:53;;;;;;;1.30;1.20;;;;;;;;;;4765142;29;20183;-81
2021/07/10 08:42:35;;;;;;;1.63;1.53;;;22.20;52.30;;;;;;4778327;29;20186;-82
2021/07/10 08:45:16;;;;;;;1.53;1.43;;;;;;;;;;4792476;28;20231;-82
2021/07/10 08:47:58;;;;;;;2.23;2.13;;;21.30;51.30;;;;;;4803094;28;20186;-87
2021/07/10 08:50:40;;;;;;;1.40;1.33;;;21.50;52.40;;;;;;4802004;28;20185;-83
2021/07/10 08:53:23;;;;;;;1.50;1.40;;;22.00;52.70;;;;;;4802276;28;20190;-83
2021/07/10 08:56:06;;;;;;;2.33;2.20;;;22.20;52.70;;;;;;4801232;28;20260;-82
2021/07/10 08:58:47;;;;;;;1.33;1.27;;;;;;;;;;4788205;28;20559;-83
2021/07/10 09:01:28;;;;;;;0.90;0.90;;;22.80;53.00;;;;;;4799875;28;20189;-82
2021/07/10 09:04:09;;;;;;;2.83;1.57;;;22.30;53.30;;;;;;4787286;28;20695;-82
2021/07/10 09:06:51;;;;;;;1.87;0.80;;;22.70;54.50;;;;;;4801826;28;20180;-84
2021/07/10 09:09:51;;;;;;;1.73;0.80;;;22.60;53.60;;;;;;4801406;28;20542;-81
2021/07/10 09:12:33;;;;;;;1.27;0.80;;;22.80;54.40;;;;;;4801563;28;20194;-84
2021/07/10 09:15:18;;;;;;;5.57;1.73;;;22.60;53.50;;;;;;4801566;28;20185;-82
2021/07/10 09:18:00;;;;;;;3.20;0.80;;;23.50;54.30;;;;;;4800767;28;20176;-79
2021/07/10 09:20:42;;;;;;;2.57;0.90;;;24.90;54.40;;;;;;4801074;28;20180;-83
2021/07/10 09:23:25;;;;;;;1.23;0.47;;;23.50;54.50;;;;;;4802558;28;20275;-83
2021/07/10 09:26:20;;;;;;;4.67;1.53;;;23.50;54.40;;;;;;4801481;28;20181;-84
2021/07/10 09:29:07;;;;;;;2.83;0.93;;;23.40;54.70;;;;;;4802069;28;20503;-81
2021/07/10 09:31:55;;;;;;;2.67;0.97;;;23.10;54.50;;;;;;4801273;28;20187;-81
2021/07/10 09:34:39;;;;;;;1.90;0.70;;;22.70;53.60;;;;;;4801236;28;20671;-86
2021/07/10 09:37:21;;;;;;;4.00;1.60;;;22.80;54.40;;;;;;4800794;28;20183;-85
2021/07/10 09:40:06;;;;;;;1.70;0.70;;;23.00;54.70;;;;;;4787398;28;20650;-83
2021/07/10 09:42:49;;;;;;;2.27;0.80;;;23.30;55.00;;;;;;4801976;28;20175;-81
2021/07/10 09:45:30;;;;;;;2.20;0.80;;;22.90;54.00;;;;;;4801144;28;20313;-86
2021/07/10 09:48:13;;;;;;;4.23;1.37;;;23.70;54.70;;;;;;4827755;28;20183;-83
2021/07/10 09:51:19;;;;;;;2.27;0.90;;;24.00;55.60;;;;;;4820492;28;20661;-82
2021/07/10 09:54:06;;;;;;;2.03;0.90;;;24.10;56.00;;;;;;4819621;28;20180;-79
2021/07/10 09:57:05;;;;;;;1.77;0.70;;;24.60;56.20;;;;;;4819577;28;20185;-84
2021/07/10 09:59:50;;;;;;;2.00;0.73;;;25.00;48.80;;;;;;4818466;28;20211;-83
2021/07/10 10:02:34;;;;;;;2.70;0.90;;;27.00;42.00;;;;;;4818450;28;20233;-82
2021/07/10 10:05:16;;;;;;;4.73;1.50;;;28.30;43.30;;;;;;4818675;28;20215;-83
2021/07/10 10:08:00;;;;;;;2.50;0.77;;;28.60;43.20;;;;;;4818839;28;20520;-86
2021/07/10 10:10:44;;;;;;;2.93;0.93;;;;;;;;;;4820038;28;20187;-81
2021/07/10 10:13:25;;;;;;;1.33;0.53;;;;;;;;;;4805704;28;20195;-83
2021/07/10 10:16:15;;;;;;;1.80;0.70;;;26.80;43.20;;;;;;4819061;28;20185;-82
2021/07/10 10:18:56;;;;;;;2.83;0.97;;;;;;;;;;4820188;28;20210;-83
2021/07/10 10:21:37;;;;;;;2.27;0.70;;;26.00;43.30;;;;;;4819122;28;20211;-87
2021/07/10 10:24:19;;;;;;;4.47;1.53;;;26.10;43.00;;;;;;4818788;28;20216;-83
2021/07/10 10:27:01;;;;;;;2.70;0.90;;;;;;;;;;4832912;28;20181;-86
2021/07/10 10:29:43;;;;;;;3.77;1.23;;;;;;;;;;4819379;28;20177;-84
2021/07/10 10:32:25;;;;;;;4.20;1.30;;;25.50;42.40;;;;;;4819242;28;20227;-83
2021/07/10 10:35:07;;;;;;;2.20;0.90;;;24.80;57.30;;;;;;4818184;28;20176;-82
2021/07/10 10:37:48;;;;;;;2.17;0.70;;;;;;;;;;4819686;28;20191;-82
2021/07/10 10:40:29;;;;;;;2.00;0.83;;;25.40;42.60;;;;;;4819224;28;20212;-82
2021/07/10 10:43:10;;;;;;;4.50;1.30;;;;;;;;;;4819451;28;20267;-82
2021/07/10 10:45:51;;;;;;;2.53;0.90;;;25.00;49.20;;;;;;4819099;28;20266;-86
2021/07/10 10:48:39;;;;;;;2.93;0.97;;;25.70;42.40;;;;;;4818841;28;20178;-85
2021/07/10 10:51:28;;;;;;;5.33;1.77;;;27.30;43.90;;;;;;4818447;28;20181;-86
2021/07/10 10:54:27;;;;;;;3.90;1.23;;;27.70;44.20;;;;;;4804558;28;20266;-82
2021/07/10 10:57:09;;;;;;;2.50;0.80;;;27.50;43.70;;;;;;4819828;28;20182;-85
2021/07/10 10:59:55;;;;;;;1.73;0.60;;;27.90;44.60;;;;;;4818770;28;20215;-84
2021/07/10 11:03:05;;;;;;;2.63;0.80;;;28.70;44.40;;;;;;4817284;28;20203;-84
2021/07/10 11:05:55;;;;;;;1.77;0.53;;;29.30;42.80;;;;;;4832922;28;20205;-83
2021/07/10 11:08:54;;;;;;;2.03;0.70;;;30.10;45.50;;;;;;4818794;28;20269;-84
2021/07/10 11:11:41;;;;;;;1.43;0.50;;;30.50;46.10;;;;;;4819037;28;20180;-84
2021/07/10 11:14:29;;;;;;;4.33;1.17;;;30.50;45.80;;;;;;4818622;28;20187;-84
2021/07/10 11:17:12;;;;;;;4.73;1.37;;;29.20;45.10;;;;;;4818536;28;20175;-83
2021/07/10 11:19:55;;;;;;;2.57;0.80;;;30.50;45.80;;;;;;4819537;28;20185;-85
2021/07/10 11:23:01;;;;;;;2.37;0.70;;;31.20;45.80;;;;;;4819842;28;20179;-83
2021/07/10 11:26:06;;;;;;;2.17;0.77;;;30.90;45.40;;;;;;4818421;28;20212;-84
2021/07/10 11:28:58;;;;;;;1.50;0.57;;;30.50;46.20;;;;;;4805074;28;20191;-83
2021/07/10 11:31:39;;;;;;;2.33;0.80;;;;;;;;;;4818465;28;20183;-84
2021/07/10 11:34:21;;;;;;;5.10;1.40;;;;;;;;;;4804524;28;20695;-84
2021/07/10 11:37:12;;;;;;;2.23;0.70;;;29.50;45.80;;;;;;4819480;28;20648;-84
2021/07/10 11:39:59;;;;;;;2.10;0.70;;;29.10;44.90;;;;;;4808315;28;20202;-83
2021/07/10 11:42:49;;;;;;;2.47;0.77;;;28.30;45.20;;;;;;4800691;28;20182;-87
2021/07/10 11:45:32;;;;;;;1.83;0.50;;;28.10;44.70;;;;;;4800458;28;20235;-85
2021/07/10 11:48:25;;;;;;;4.50;1.33;;;27.60;45.00;;;;;;4799591;28;20184;-84
2021/07/10 11:51:09;;;;;;;2.87;0.83;;;27.40;44.90;;;;;;4813217;28;20603;-86
2021/07/10 11:53:58;;;;;;;2.17;0.67;;;28.10;45.40;;;;;;4800834;28;20270;-84
2021/07/10 11:56:40;;;;;;;2.23;0.63;;;29.90;45.50;;;;;;4816661;28;20185;-85
2021/07/10 11:59:23;;;;;;;5.47;1.37;;;31.10;45.70;;;;;;4818991;28;20217;-86
2021/07/10 12:02:15;;;;;;;2.80;0.67;;;33.90;47.90;;;;;;4819836;28;20649;-84
2021/07/10 12:05:00;;;;;;;2.20;0.60;;;34.90;48.10;;;;;;4821900;28;20179;-84
2021/07/10 12:07:42;;;;;;;2.78;0.80;;;35.00;48.50;;;;;;4822615;28;20183;-88
2021/07/10 12:10:25;;;;;;;5.68;1.52;;;34.70;49.10;;;;;;4821936;28;20179;-85
2021/07/10 12:13:12;;;;;;;9.55;2.47;;;33.50;48.80;;;;;;4822888;28;20195;-87
2021/07/10 12:15:54;;;;;;;2.72;0.82;;;33.80;48.30;;;;;;4822948;28;20218;-87
2021/07/10 12:18:37;;;;;;;3.60;0.93;;;33.30;48.50;;;;;;4834593;28;20187;-85
2021/07/10 12:21:19;;;;;;;5.95;1.48;;;34.30;48.40;;;;;;4803656;28;20188;-87
2021/07/10 12:24:00;;;;;;;2.47;0.65;;;35.90;49.20;;;;;;4801994;28;20180;-82
2021/07/10 12:26:41;;;;;;;3.80;0.98;;;38.50;50.00;;;;;;4803092;28;20542;-81
2021/07/10 12:29:24;;;;;;;6.53;1.48;;;39.60;50.50;;;;;;4809071;28;20174;-84
2021/07/10 12:32:14;;;;;;;2.40;0.50;;;40.60;51.50;;;;;;4853811;28;20190;-85
2021/07/10 12:34:57;;;;;;;2.60;0.55;;;42.10;51.90;;;;;;4840643;28;20187;-91
2021/07/10 12:37:38;;;;;;;3.20;0.73;;;;;;;;;;4842363;28;20186;-81
2021/07/10 12:40:20;;;;;;;4.95;1.08;;;;;;;;;;4854776;28;20637;-91
2021/07/10 12:43:01;;;;;;;9.80;1.95;;;44.20;52.60;;;;;;4855267;28;20186;-91
2021/07/10 12:45:43;;;;;;;2.42;0.55;;;44.10;52.60;;;;;;4840982;28;20702;-89
2021/07/10 12:48:25;;;;;;;1.50;0.38;;;;;;;;;;4842354;28;20182;-90
2021/07/10 12:51:06;;;;;;;0.90;0.22;;;43.80;52.50;;;;;;4855833;28;20265;-94
2021/07/10 12:53:47;;;;;;;1.60;0.38;;;43.20;52.30;;;;;;4827149;28;20183;-91
2021/07/10 12:56:42;;;;;;;3.95;0.88;;;43.30;52.60;;;;;;4841369;28;20211;-94
2021/07/10 12:59:24;;;;;;;8.23;1.65;;;43.00;52.90;;;;;;4841135;28;20218;-88
2021/07/10 13:02:07;;;;;;;4.32;0.93;;;42.70;53.00;;;;;;4838859;28;20186;-84
2021/07/10 13:04:48;;;;;;;2.17;0.47;;;;;;;;;;4821212;28;20199;-88
2021/07/10 13:07:31;;;;;;;4.15;0.85;;;43.90;53.40;;;;;;4821390;28;20175;-87
2021/07/10 13:10:28;;;;;;;6.40;1.27;;;44.20;53.10;;;;;;4809455;28;20179;-93
2021/07/10 13:13:14;;;;;;;15.18;2.88;;;44.90;53.50;;;;;;4819295;28;20183;-89
2021/07/10 13:15:58;;;;;;;5.28;1.08;;;44.90;53.50;;;;;;4808288;28;20210;-92
2021/07/10 13:18:49;;;;;;;4.40;0.93;;;45.10;54.00;;;;;;4821478;28;20183;-86
2021/07/10 13:21:32;;;;;;;6.22;1.33;;;45.70;54.30;;;;;;4822103;28;20183;-86
2021/07/10 13:24:14;;;;;;;7.57;1.45;;;45.80;54.50;;;;;;4821615;28;20179;-88
2021/07/10 13:26:56;;;;;;;3.90;0.90;;;45.50;55.30;;;;;;4835355;28;20258;-84
2021/07/10 13:29:37;;;;;;;3.40;0.80;;;46.90;85.20;;;;;;4821280;28;20175;-84
2021/07/10 13:32:22;;;;;;;10.50;2.08;;;47.00;92.00;;;;;;4821625;28;20207;-88
2021/07/10 13:35:08;;;;;;;4.00;0.82;;;46.80;80.20;;;;;;4804524;28;20223;-86
2021/07/10 13:37:49;;;;;;;2.10;0.55;;;47.20;76.20;;;;;;4817134;28;20192;-91
2021/07/10 13:40:30;;;;;;;2.17;0.50;;;46.90;77.40;;;;;;4816963;28;20594;-94
2021/07/10 13:43:11;;;;;;;21.33;4.03;;;;;;;;;;4814880;28;20211;-84
2021/07/10 13:46:07;;;;;;;3.28;0.75;;;47.30;78.60;;;;;;4803819;28;20227;-89
2021/07/10 13:48:48;;;;;;;0.98;0.30;;;46.90;78.30;;;;;;4803901;28;20188;-93
2021/07/10 13:51:31;;;;;;;3.25;0.70;;;45.50;79.80;;;;;;4804592;28;20509;-84
2021/07/10 13:54:24;;;;;;;9.02;1.85;;;45.40;99.90;;;;;;4801756;28;20184;-84
2021/07/10 13:57:21;;;;;;;0.93;0.30;;;44.20;77.80;;;;;;4804475;28;20211;-88
2021/07/10 14:00:11;;;;;;;3.08;0.70;;;42.20;89.00;;;;;;4802849;28;20220;-84
2021/07/10 14:02:55;;;;;;;3.05;0.70;;;41.00;99.90;;;;;;4804080;28;20196;-82
2021/07/10 14:05:38;;;;;;;3.65;0.88;;;39.80;93.20;;;;;;4820727;28;20187;-86
2021/07/10 14:08:21;;;;;;;6.20;1.55;;;38.00;73.50;;;;;;4838537;28;20640;-83
2021/07/10 14:11:02;;;;;;;3.58;0.90;;;36.20;92.10;;;;;;4839301;28;20510;-83
2021/07/10 14:13:44;;;;;;;3.65;0.90;;;34.40;74.70;;;;;;4839345;28;20170;-85
2021/07/10 14:16:25;;;;;;;1.17;0.32;;;;;;;;;;4851374;28;20217;-83
2021/07/10 14:19:06;;;;;;;1.60;0.40;;;33.40;71.90;;;;;;4839776;28;20633;-87
2021/07/10 14:21:47;;;;;;;1.02;0.30;;;;;;;;;;4839972;28;20218;-83
2021/07/10 14:24:29;;;;;;;2.17;0.63;;;31.60;73.40;;;;;;4838347;28;20170;-83